Detall de PIREP

Printer-friendly versionPDF version

[2013/11/18 11:28:00]
Flight IATA:CT2111
Pilot Number:011
Company ICAO:CAT
Aircraft Type:B738/F
PAX:160
Departing Airport: LEST
Destination Airport: LEVC
Alternate Airport:LEPA
Online: VATSIM
Route:FORNO UN733 ZMR UL155 NVS UM191 PDT UM871 ABOSI
Flight Level:F340
No Slew and time accel
No pause
Crash detect
Detect pilot in Cockpit between each 30 and 45 minutes
11:28 Zero fuel Weight: 135990 Lbs, Fuel Weight: 16051 Lbs
11:28 VATSIM:LEST 181100Z 00000KT 3000 VCFG FEW001 BKN003 BKN010 09/09 Q1015 TEMPO 0800 BCFG
11:28 VATSIM:LEVC 181100Z 23011KT 9999 FEW030 SCT062 15/04 Q1003 NOSIG
11:29 Parking Brakes off
11:39 Take-off
11:39 Take off Weight: 151251 Lbs
11:39 Wind: 032º @ 000 Knots Heading: 166º
11:39 POS N42º 53´ 44´´ W008º 24´ 54´´
11:39 Flaps:5 at 156 Knots
11:39 Gear Up: 157 Knots
11:40 Flaps:4 at 210 Knots
11:41 Flaps:3 at 213 Knots
11:41 Flaps:2 at 214 Knots
11:41 Flaps:1 at 214 Knots
11:41 Flaps:0 at 214 Knots
11:54 Wind:351º@016 Knots Heading: 121º Ground Speed: 426 Knots Altitude 30127 ft
11:56 TOC
11:56 Fuel Weight: 11793 Lb
12:09 Wind:298º@017 Knots Heading: 137º Ground Speed: 476 Knots Altitude 33920 ft
12:22 TOD
12:22 Fuel Weight: 9374 Lb
12:46 Flaps:1 at 230 Knots
12:47 Flaps:2 at 227 Knots
12:47 Flaps:3 at 222 Knots
12:47 Flaps:4 at 209 Knots
12:48 Flaps:5 at 188 Knots
12:48 Flaps:6 at 178 Knots
12:48 Gear Down: 177 Knots
12:50 Flaps:7 at 159 Knots
12:51 Flaps:8 at 154 Knots
12:56 TouchDown:Rate -248 ft/min Speed: 134 Knots
12:56 VATSIM:LEVC 181230Z 24010KT 9999 FEW030 SCT062 15/05 Q1002 NOSIG
12:56 Land
12:56 Wind:243º@010 Knots
12:56 Heading: 294º
12:56 Flight Duration: 01:17
12:56 Landing Weight: 143198 Lbs
12:56 POS N39º 29´ 23´´ W000º 28´ 59´´
12:59 Parking brakes on
12:59 Block to Block Duration: 01:30
12:59 Final Fuel: 6955 Lbls
12:59 Spent Fuel: 9096 Lbls
12:59 Flight Length: 310 NM
12:59 TOD Land Length: 08 NM

Exportar CSV

Powered by Drupal - Modified by Danger4k